sensor_id;sensor_type;location;lat;lon;timestamp;P1;durP1;ratioP1;P2;durP2;ratioP2
45676;SDS011;31390;51.186;6.830;2023-05-29T00:00:26;2.67;;;1.80;;
45676;SDS011;31390;51.186;6.830;2023-05-29T00:02:53;2.67;;;1.60;;
45676;SDS011;31390;51.186;6.830;2023-05-29T00:05:20;5.00;;;2.00;;
45676;SDS011;31390;51.186;6.830;2023-05-29T00:07:49;1.77;;;1.67;;
45676;SDS011;31390;51.186;6.830;2023-05-29T00:10:16;2.30;;;1.70;;
45676;SDS011;31390;51.186;6.830;2023-05-29T00:12:43;2.58;;;1.80;;
45676;SDS011;31390;51.186;6.830;2023-05-29T00:15:09;3.30;;;1.60;;
45676;SDS011;31390;51.186;6.830;2023-05-29T00:17:37;1.98;;;1.70;;
45676;SDS011;31390;51.186;6.830;2023-05-29T00:20:04;3.55;;;1.73;;
45676;SDS011;31390;51.186;6.830;2023-05-29T00:22:35;2.58;;;1.88;;
45676;SDS011;31390;51.186;6.830;2023-05-29T00:25:04;2.55;;;1.70;;
45676;SDS011;31390;51.186;6.830;2023-05-29T00:27:31;1.92;;;1.70;;
45676;SDS011;31390;51.186;6.830;2023-05-29T00:29:59;3.05;;;1.98;;
45676;SDS011;31390;51.186;6.830;2023-05-29T00:32:26;2.95;;;1.95;;
45676;SDS011;31390;51.186;6.830;2023-05-29T00:34:54;3.80;;;1.90;;
45676;SDS011;31390;51.186;6.830;2023-05-29T00:37:22;3.42;;;2.10;;
45676;SDS011;31390;51.186;6.830;2023-05-29T00:39:48;3.47;;;2.10;;
45676;SDS011;31390;51.186;6.830;2023-05-29T00:42:15;3.45;;;1.70;;
45676;SDS011;31390;51.186;6.830;2023-05-29T00:44:42;2.80;;;1.63;;
45676;SDS011;31390;51.186;6.830;2023-05-29T00:47:08;3.90;;;1.60;;
45676;SDS011;31390;51.186;6.830;2023-05-29T00:49:35;3.17;;;2.20;;
45676;SDS011;31390;51.186;6.830;2023-05-29T00:52:02;2.67;;;1.98;;
45676;SDS011;31390;51.186;6.830;2023-05-29T00:54:30;3.03;;;1.90;;
45676;SDS011;31390;51.186;6.830;2023-05-29T00:56:57;3.20;;;1.88;;
45676;SDS011;31390;51.186;6.830;2023-05-29T00:59:25;2.67;;;2.08;;
45676;SDS011;31390;51.186;6.830;2023-05-29T01:01:52;3.20;;;2.05;;
45676;SDS011;31390;51.186;6.830;2023-05-29T01:04:21;3.65;;;1.90;;
45676;SDS011;31390;51.186;6.830;2023-05-29T01:06:50;3.72;;;1.95;;
45676;SDS011;31390;51.186;6.830;2023-05-29T01:09:17;2.50;;;1.98;;
45676;SDS011;31390;51.186;6.830;2023-05-29T01:14:13;5.80;;;1.88;;
45676;SDS011;31390;51.186;6.830;2023-05-29T01:16:48;3.00;;;2.00;;
45676;SDS011;31390;51.186;6.830;2023-05-29T01:22:40;2.20;;;1.70;;
45676;SDS011;31390;51.186;6.830;2023-05-29T01:27:10;2.50;;;2.13;;
45676;SDS011;31390;51.186;6.830;2023-05-29T01:29:37;2.95;;;2.20;;
45676;SDS011;31390;51.186;6.830;2023-05-29T01:32:05;4.25;;;2.10;;
45676;SDS011;31390;51.186;6.830;2023-05-29T01:34:32;5.82;;;2.00;;
45676;SDS011;31390;51.186;6.830;2023-05-29T01:36:58;3.22;;;1.88;;
45676;SDS011;31390;51.186;6.830;2023-05-29T01:39:28;4.35;;;1.80;;
45676;SDS011;31390;51.186;6.830;2023-05-29T01:41:57;2.90;;;1.98;;
45676;SDS011;31390;51.186;6.830;2023-05-29T01:44:24;3.72;;;1.95;;
45676;SDS011;31390;51.186;6.830;2023-05-29T01:46:51;3.00;;;2.17;;
45676;SDS011;31390;51.186;6.830;2023-05-29T01:49:18;2.35;;;1.98;;
45676;SDS011;31390;51.186;6.830;2023-05-29T01:51:45;2.45;;;1.80;;
45676;SDS011;31390;51.186;6.830;2023-05-29T01:54:11;2.60;;;1.80;;
45676;SDS011;31390;51.186;6.830;2023-05-29T01:56:38;2.35;;;1.85;;
45676;SDS011;31390;51.186;6.830;2023-05-29T01:59:05;4.35;;;2.13;;
45676;SDS011;31390;51.186;6.830;2023-05-29T02:01:32;3.42;;;1.90;;
45676;SDS011;31390;51.186;6.830;2023-05-29T02:03:59;2.90;;;2.03;;
45676;SDS011;31390;51.186;6.830;2023-05-29T02:06:26;3.50;;;1.92;;
45676;SDS011;31390;51.186;6.830;2023-05-29T02:08:52;3.72;;;1.60;;
45676;SDS011;31390;51.186;6.830;2023-05-29T02:11:19;4.47;;;1.88;;
45676;SDS011;31390;51.186;6.830;2023-05-29T02:13:46;3.42;;;1.77;;
45676;SDS011;31390;51.186;6.830;2023-05-29T02:16:13;2.83;;;1.90;;
45676;SDS011;31390;51.186;6.830;2023-05-29T02:18:40;2.15;;;1.52;;
45676;SDS011;31390;51.186;6.830;2023-05-29T02:21:07;9.43;;;2.15;;
45676;SDS011;31390;51.186;6.830;2023-05-29T02:23:34;3.58;;;1.90;;
45676;SDS011;31390;51.186;6.830;2023-05-29T02:26:01;3.85;;;2.10;;
45676;SDS011;31390;51.186;6.830;2023-05-29T02:28:27;4.72;;;2.03;;
45676;SDS011;31390;51.186;6.830;2023-05-29T02:30:54;2.88;;;1.92;;
45676;SDS011;31390;51.186;6.830;2023-05-29T02:33:21;3.88;;;2.03;;
45676;SDS011;31390;51.186;6.830;2023-05-29T02:35:48;3.05;;;1.63;;
45676;SDS011;31390;51.186;6.830;2023-05-29T02:38:14;4.60;;;1.88;;
45676;SDS011;31390;51.186;6.830;2023-05-29T02:40:41;4.45;;;2.13;;
45676;SDS011;31390;51.186;6.830;2023-05-29T02:43:08;4.55;;;1.70;;
45676;SDS011;31390;51.186;6.830;2023-05-29T02:45:35;4.65;;;2.00;;
45676;SDS011;31390;51.186;6.830;2023-05-29T02:48:02;5.50;;;2.05;;
45676;SDS011;31390;51.186;6.830;2023-05-29T02:50:30;3.50;;;1.90;;
45676;SDS011;31390;51.186;6.830;2023-05-29T02:52:56;4.63;;;1.70;;
45676;SDS011;31390;51.186;6.830;2023-05-29T02:55:23;4.13;;;1.77;;
45676;SDS011;31390;51.186;6.830;2023-05-29T02:57:49;3.38;;;1.73;;
45676;SDS011;31390;51.186;6.830;2023-05-29T03:00:19;7.22;;;1.90;;
45676;SDS011;31390;51.186;6.830;2023-05-29T03:02:47;2.50;;;1.38;;
45676;SDS011;31390;51.186;6.830;2023-05-29T03:05:13;3.42;;;1.83;;
45676;SDS011;31390;51.186;6.830;2023-05-29T03:07:40;4.20;;;1.70;;
45676;SDS011;31390;51.186;6.830;2023-05-29T03:10:07;2.60;;;1.35;;
45676;SDS011;31390;51.186;6.830;2023-05-29T03:12:34;5.70;;;2.08;;
45676;SDS011;31390;51.186;6.830;2023-05-29T03:15:01;5.95;;;1.70;;
45676;SDS011;31390;51.186;6.830;2023-05-29T03:17:28;4.28;;;1.90;;
45676;SDS011;31390;51.186;6.830;2023-05-29T03:19:56;5.55;;;2.20;;
45676;SDS011;31390;51.186;6.830;2023-05-29T03:22:24;4.78;;;1.80;;
45676;SDS011;31390;51.186;6.830;2023-05-29T03:24:51;5.30;;;1.70;;
45676;SDS011;31390;51.186;6.830;2023-05-29T03:27:17;4.07;;;1.85;;
45676;SDS011;31390;51.186;6.830;2023-05-29T03:29:48;2.13;;;1.42;;
45676;SDS011;31390;51.186;6.830;2023-05-29T03:32:14;2.28;;;1.75;;
45676;SDS011;31390;51.186;6.830;2023-05-29T03:34:41;5.40;;;1.50;;
45676;SDS011;31390;51.186;6.830;2023-05-29T03:37:08;4.40;;;2.05;;
45676;SDS011;31390;51.186;6.830;2023-05-29T03:39:35;3.92;;;1.55;;
45676;SDS011;31390;51.186;6.830;2023-05-29T03:42:03;4.57;;;1.95;;
45676;SDS011;31390;51.186;6.830;2023-05-29T03:44:29;2.10;;;1.23;;
45676;SDS011;31390;51.186;6.830;2023-05-29T03:46:57;2.63;;;1.27;;
45676;SDS011;31390;51.186;6.830;2023-05-29T03:49:23;3.80;;;1.50;;
45676;SDS011;31390;51.186;6.830;2023-05-29T03:51:50;4.10;;;1.58;;
45676;SDS011;31390;51.186;6.830;2023-05-29T03:54:17;5.20;;;1.90;;
45676;SDS011;31390;51.186;6.830;2023-05-29T03:56:44;6.55;;;1.55;;
45676;SDS011;31390;51.186;6.830;2023-05-29T03:59:12;2.80;;;1.50;;
45676;SDS011;31390;51.186;6.830;2023-05-29T04:01:39;5.35;;;1.67;;
45676;SDS011;31390;51.186;6.830;2023-05-29T04:04:05;7.20;;;1.98;;
45676;SDS011;31390;51.186;6.830;2023-05-29T04:06:32;6.15;;;2.03;;
45676;SDS011;31390;51.186;6.830;2023-05-29T04:08:59;4.95;;;1.58;;
45676;SDS011;31390;51.186;6.830;2023-05-29T04:11:27;4.28;;;1.90;;
45676;SDS011;31390;51.186;6.830;2023-05-29T04:13:54;4.30;;;1.40;;
45676;SDS011;31390;51.186;6.830;2023-05-29T04:16:21;3.22;;;1.50;;
45676;SDS011;31390;51.186;6.830;2023-05-29T04:18:47;7.05;;;1.95;;
45676;SDS011;31390;51.186;6.830;2023-05-29T04:21:14;3.53;;;1.65;;
45676;SDS011;31390;51.186;6.830;2023-05-29T04:23:40;2.63;;;1.52;;
45676;SDS011;31390;51.186;6.830;2023-05-29T04:26:07;4.25;;;1.77;;
45676;SDS011;31390;51.186;6.830;2023-05-29T04:28:36;6.22;;;1.77;;
45676;SDS011;31390;51.186;6.830;2023-05-29T04:31:04;4.82;;;1.70;;
45676;SDS011;31390;51.186;6.830;2023-05-29T04:33:33;6.05;;;2.28;;
45676;SDS011;31390;51.186;6.830;2023-05-29T04:36:03;4.90;;;1.70;;
45676;SDS011;31390;51.186;6.830;2023-05-29T04:38:31;5.57;;;1.90;;
45676;SDS011;31390;51.186;6.830;2023-05-29T04:40:58;5.15;;;1.92;;
45676;SDS011;31390;51.186;6.830;2023-05-29T04:43:27;6.55;;;1.70;;
45676;SDS011;31390;51.186;6.830;2023-05-29T04:46:01;4.55;;;1.60;;
45676;SDS011;31390;51.186;6.830;2023-05-29T04:48:31;2.58;;;1.52;;
45676;SDS011;31390;51.186;6.830;2023-05-29T04:50:58;7.55;;;1.80;;
45676;SDS011;31390;51.186;6.830;2023-05-29T04:53:26;4.20;;;1.50;;
45676;SDS011;31390;51.186;6.830;2023-05-29T04:55:53;5.95;;;1.67;;
45676;SDS011;31390;51.186;6.830;2023-05-29T04:58:20;3.28;;;1.52;;
45676;SDS011;31390;51.186;6.830;2023-05-29T05:00:49;6.57;;;1.73;;
45676;SDS011;31390;51.186;6.830;2023-05-29T05:03:15;4.05;;;1.50;;
45676;SDS011;31390;51.186;6.830;2023-05-29T05:05:43;4.78;;;1.88;;
45676;SDS011;31390;51.186;6.830;2023-05-29T05:08:10;5.20;;;1.60;;
45676;SDS011;31390;51.186;6.830;2023-05-29T05:10:38;7.57;;;2.10;;
45676;SDS011;31390;51.186;6.830;2023-05-29T05:13:05;5.50;;;1.85;;
45676;SDS011;31390;51.186;6.830;2023-05-29T05:15:35;2.92;;;1.45;;
45676;SDS011;31390;51.186;6.830;2023-05-29T05:18:02;3.78;;;1.42;;
45676;SDS011;31390;51.186;6.830;2023-05-29T05:20:29;6.63;;;1.88;;
45676;SDS011;31390;51.186;6.830;2023-05-29T05:22:58;5.47;;;2.13;;
45676;SDS011;31390;51.186;6.830;2023-05-29T05:25:27;4.97;;;1.60;;
45676;SDS011;31390;51.186;6.830;2023-05-29T05:27:53;5.05;;;1.65;;
45676;SDS011;31390;51.186;6.830;2023-05-29T05:30:22;4.90;;;1.60;;
45676;SDS011;31390;51.186;6.830;2023-05-29T05:32:48;4.20;;;1.60;;
45676;SDS011;31390;51.186;6.830;2023-05-29T05:35:15;6.13;;;1.73;;
45676;SDS011;31390;51.186;6.830;2023-05-29T05:37:42;5.80;;;1.65;;
45676;SDS011;31390;51.186;6.830;2023-05-29T05:40:10;3.10;;;1.63;;
45676;SDS011;31390;51.186;6.830;2023-05-29T05:42:47;3.42;;;1.60;;
45676;SDS011;31390;51.186;6.830;2023-05-29T05:45:14;4.90;;;2.10;;
45676;SDS011;31390;51.186;6.830;2023-05-29T05:47:41;6.70;;;2.17;;
45676;SDS011;31390;51.186;6.830;2023-05-29T05:50:08;6.28;;;1.67;;
45676;SDS011;31390;51.186;6.830;2023-05-29T05:52:35;8.98;;;1.98;;
45676;SDS011;31390;51.186;6.830;2023-05-29T05:55:01;5.25;;;1.90;;
45676;SDS011;31390;51.186;6.830;2023-05-29T05:57:29;4.05;;;1.58;;
45676;SDS011;31390;51.186;6.830;2023-05-29T05:59:56;6.43;;;1.77;;
45676;SDS011;31390;51.186;6.830;2023-05-29T06:02:24;4.47;;;1.83;;
45676;SDS011;31390;51.186;6.830;2023-05-29T06:04:50;4.75;;;1.90;;
45676;SDS011;31390;51.186;6.830;2023-05-29T06:07:17;5.43;;;2.08;;
45676;SDS011;31390;51.186;6.830;2023-05-29T06:09:44;5.32;;;1.77;;
45676;SDS011;31390;51.186;6.830;2023-05-29T06:12:11;6.38;;;1.60;;
45676;SDS011;31390;51.186;6.830;2023-05-29T06:14:45;6.03;;;2.28;;
45676;SDS011;31390;51.186;6.830;2023-05-29T06:17:11;4.28;;;1.60;;
45676;SDS011;31390;51.186;6.830;2023-05-29T06:19:38;4.05;;;1.88;;
45676;SDS011;31390;51.186;6.830;2023-05-29T06:22:05;7.22;;;1.92;;
45676;SDS011;31390;51.186;6.830;2023-05-29T06:24:34;4.40;;;1.70;;
45676;SDS011;31390;51.186;6.830;2023-05-29T06:27:01;5.40;;;1.77;;
45676;SDS011;31390;51.186;6.830;2023-05-29T06:29:28;8.55;;;1.92;;
45676;SDS011;31390;51.186;6.830;2023-05-29T06:31:54;4.45;;;1.80;;
45676;SDS011;31390;51.186;6.830;2023-05-29T06:34:21;7.80;;;1.77;;
45676;SDS011;31390;51.186;6.830;2023-05-29T06:36:47;5.45;;;2.03;;
45676;SDS011;31390;51.186;6.830;2023-05-29T06:39:14;4.70;;;1.67;;
45676;SDS011;31390;51.186;6.830;2023-05-29T06:41:41;6.70;;;1.92;;
45676;SDS011;31390;51.186;6.830;2023-05-29T06:44:08;4.43;;;2.13;;
45676;SDS011;31390;51.186;6.830;2023-05-29T06:46:34;3.10;;;1.70;;
45676;SDS011;31390;51.186;6.830;2023-05-29T06:49:01;6.38;;;2.00;;
45676;SDS011;31390;51.186;6.830;2023-05-29T06:51:32;6.13;;;1.92;;
45676;SDS011;31390;51.186;6.830;2023-05-29T06:54:05;4.47;;;1.70;;
45676;SDS011;31390;51.186;6.830;2023-05-29T06:56:32;2.92;;;1.55;;
45676;SDS011;31390;51.186;6.830;2023-05-29T06:58:59;4.55;;;1.88;;
45676;SDS011;31390;51.186;6.830;2023-05-29T07:01:28;8.40;;;1.80;;
45676;SDS011;31390;51.186;6.830;2023-05-29T07:03:59;4.97;;;1.83;;
45676;SDS011;31390;51.186;6.830;2023-05-29T07:06:26;5.25;;;1.80;;
45676;SDS011;31390;51.186;6.830;2023-05-29T07:08:52;3.75;;;1.60;;
45676;SDS011;31390;51.186;6.830;2023-05-29T07:11:19;4.00;;;1.50;;
45676;SDS011;31390;51.186;6.830;2023-05-29T07:13:46;3.33;;;2.08;;
45676;SDS011;31390;51.186;6.830;2023-05-29T07:16:13;4.78;;;1.95;;
45676;SDS011;31390;51.186;6.830;2023-05-29T07:18:55;3.65;;;2.03;;
45676;SDS011;31390;51.186;6.830;2023-05-29T07:21:26;3.90;;;1.60;;
45676;SDS011;31390;51.186;6.830;2023-05-29T07:23:53;3.75;;;1.70;;
45676;SDS011;31390;51.186;6.830;2023-05-29T07:26:19;7.60;;;2.13;;
45676;SDS011;31390;51.186;6.830;2023-05-29T07:28:49;4.00;;;1.88;;
45676;SDS011;31390;51.186;6.830;2023-05-29T07:31:16;4.60;;;1.67;;
45676;SDS011;31390;51.186;6.830;2023-05-29T07:33:43;4.82;;;1.88;;
45676;SDS011;31390;51.186;6.830;2023-05-29T07:36:10;4.70;;;2.00;;
45676;SDS011;31390;51.186;6.830;2023-05-29T07:38:37;3.80;;;1.80;;
45676;SDS011;31390;51.186;6.830;2023-05-29T07:41:04;3.95;;;1.60;;
45676;SDS011;31390;51.186;6.830;2023-05-29T07:43:33;5.18;;;1.95;;
45676;SDS011;31390;51.186;6.830;2023-05-29T07:46:03;6.10;;;2.35;;
45676;SDS011;31390;51.186;6.830;2023-05-29T07:48:30;6.03;;;2.03;;
45676;SDS011;31390;51.186;6.830;2023-05-29T07:50:58;4.55;;;2.08;;
45676;SDS011;31390;51.186;6.830;2023-05-29T07:53:27;7.50;;;1.90;;
45676;SDS011;31390;51.186;6.830;2023-05-29T07:55:55;4.90;;;1.85;;
45676;SDS011;31390;51.186;6.830;2023-05-29T07:58:22;5.03;;;2.00;;
45676;SDS011;31390;51.186;6.830;2023-05-29T08:00:49;5.20;;;1.80;;
45676;SDS011;31390;51.186;6.830;2023-05-29T08:03:16;6.40;;;2.05;;
45676;SDS011;31390;51.186;6.830;2023-05-29T08:05:49;6.82;;;2.15;;
45676;SDS011;31390;51.186;6.830;2023-05-29T08:08:17;4.78;;;2.00;;
45676;SDS011;31390;51.186;6.830;2023-05-29T08:10:44;4.80;;;1.55;;
45676;SDS011;31390;51.186;6.830;2023-05-29T08:13:11;6.25;;;2.08;;
45676;SDS011;31390;51.186;6.830;2023-05-29T08:15:39;5.57;;;2.05;;
45676;SDS011;31390;51.186;6.830;2023-05-29T08:18:05;4.97;;;2.55;;
45676;SDS011;31390;51.186;6.830;2023-05-29T08:20:33;7.72;;;2.28;;
45676;SDS011;31390;51.186;6.830;2023-05-29T08:23:01;5.95;;;1.95;;
45676;SDS011;31390;51.186;6.830;2023-05-29T08:25:28;5.22;;;1.80;;
45676;SDS011;31390;51.186;6.830;2023-05-29T08:27:54;5.70;;;2.25;;
45676;SDS011;31390;51.186;6.830;2023-05-29T08:30:21;6.32;;;2.40;;
45676;SDS011;31390;51.186;6.830;2023-05-29T08:32:48;7.40;;;2.00;;
45676;SDS011;31390;51.186;6.830;2023-05-29T08:35:16;3.85;;;1.83;;
45676;SDS011;31390;51.186;6.830;2023-05-29T08:37:43;6.05;;;2.38;;
45676;SDS011;31390;51.186;6.830;2023-05-29T08:40:10;5.57;;;2.05;;
45676;SDS011;31390;51.186;6.830;2023-05-29T08:42:39;6.55;;;2.05;;
45676;SDS011;31390;51.186;6.830;2023-05-29T08:45:09;5.97;;;1.90;;
45676;SDS011;31390;51.186;6.830;2023-05-29T08:47:38;7.32;;;2.00;;
45676;SDS011;31390;51.186;6.830;2023-05-29T08:50:08;5.45;;;2.03;;
45676;SDS011;31390;51.186;6.830;2023-05-29T08:52:35;5.70;;;2.20;;
45676;SDS011;31390;51.186;6.830;2023-05-29T08:55:02;6.25;;;2.42;;
45676;SDS011;31390;51.186;6.830;2023-05-29T08:57:30;5.10;;;1.95;;
45676;SDS011;31390;51.186;6.830;2023-05-29T08:59:57;5.13;;;2.47;;
45676;SDS011;31390;51.186;6.830;2023-05-29T09:02:24;4.65;;;2.10;;
45676;SDS011;31390;51.186;6.830;2023-05-29T09:04:51;4.50;;;2.33;;
45676;SDS011;31390;51.186;6.830;2023-05-29T09:07:22;9.27;;;2.20;;
45676;SDS011;31390;51.186;6.830;2023-05-29T09:09:51;4.60;;;1.80;;
45676;SDS011;31390;51.186;6.830;2023-05-29T09:12:19;7.15;;;2.38;;
45676;SDS011;31390;51.186;6.830;2023-05-29T09:14:46;5.70;;;1.92;;
45676;SDS011;31390;51.186;6.830;2023-05-29T09:17:13;5.10;;;2.10;;
45676;SDS011;31390;51.186;6.830;2023-05-29T09:19:41;5.50;;;2.40;;
45676;SDS011;31390;51.186;6.830;2023-05-29T09:22:09;4.10;;;2.50;;
45676;SDS011;31390;51.186;6.830;2023-05-29T09:24:42;4.30;;;1.92;;
45676;SDS011;31390;51.186;6.830;2023-05-29T09:27:09;6.43;;;2.25;;
45676;SDS011;31390;51.186;6.830;2023-05-29T09:29:39;5.03;;;1.90;;
45676;SDS011;31390;51.186;6.830;2023-05-29T09:32:11;4.38;;;1.92;;
45676;SDS011;31390;51.186;6.830;2023-05-29T09:34:38;7.22;;;2.17;;
45676;SDS011;31390;51.186;6.830;2023-05-29T09:37:06;7.03;;;2.33;;
45676;SDS011;31390;51.186;6.830;2023-05-29T09:42:06;4.50;;;1.70;;
45676;SDS011;31390;51.186;6.830;2023-05-29T09:44:33;2.78;;;1.67;;
45676;SDS011;31390;51.186;6.830;2023-05-29T09:47:00;6.15;;;2.42;;
45676;SDS011;31390;51.186;6.830;2023-05-29T09:49:27;4.60;;;2.15;;
45676;SDS011;31390;51.186;6.830;2023-05-29T09:51:54;7.53;;;1.85;;
45676;SDS011;31390;51.186;6.830;2023-05-29T09:54:22;3.65;;;1.98;;
45676;SDS011;31390;51.186;6.830;2023-05-29T09:56:49;4.32;;;1.95;;
45676;SDS011;31390;51.186;6.830;2023-05-29T09:59:16;5.18;;;1.88;;
45676;SDS011;31390;51.186;6.830;2023-05-29T10:01:46;5.75;;;2.22;;
45676;SDS011;31390;51.186;6.830;2023-05-29T10:04:13;6.28;;;1.92;;
45676;SDS011;31390;51.186;6.830;2023-05-29T10:06:41;5.40;;;1.83;;
45676;SDS011;31390;51.186;6.830;2023-05-29T10:09:11;6.30;;;1.90;;
45676;SDS011;31390;51.186;6.830;2023-05-29T10:11:39;3.58;;;1.60;;
45676;SDS011;31390;51.186;6.830;2023-05-29T10:14:07;4.72;;;1.88;;
45676;SDS011;31390;51.186;6.830;2023-05-29T10:16:35;5.55;;;1.83;;
45676;SDS011;31390;51.186;6.830;2023-05-29T10:19:09;6.45;;;1.92;;
45676;SDS011;31390;51.186;6.830;2023-05-29T10:21:38;3.95;;;1.75;;
45676;SDS011;31390;51.186;6.830;2023-05-29T10:24:06;5.65;;;2.05;;
45676;SDS011;31390;51.186;6.830;2023-05-29T10:26:37;6.65;;;2.10;;
45676;SDS011;31390;51.186;6.830;2023-05-29T10:37:07;6.57;;;2.00;;
45676;SDS011;31390;51.186;6.830;2023-05-29T10:39:34;5.80;;;1.88;;
45676;SDS011;31390;51.186;6.830;2023-05-29T10:42:01;5.30;;;1.90;;
45676;SDS011;31390;51.186;6.830;2023-05-29T10:47:04;5.60;;;1.88;;
45676;SDS011;31390;51.186;6.830;2023-05-29T10:49:31;6.65;;;1.88;;
45676;SDS011;31390;51.186;6.830;2023-05-29T10:51:58;3.72;;;1.85;;
45676;SDS011;31390;51.186;6.830;2023-05-29T10:54:28;3.88;;;1.83;;
45676;SDS011;31390;51.186;6.830;2023-05-29T10:57:06;5.45;;;1.88;;
45676;SDS011;31390;51.186;6.830;2023-05-29T10:59:37;5.07;;;2.08;;
45676;SDS011;31390;51.186;6.830;2023-05-29T11:02:04;5.35;;;1.75;;
45676;SDS011;31390;51.186;6.830;2023-05-29T11:04:33;4.05;;;1.40;;
45676;SDS011;31390;51.186;6.830;2023-05-29T11:07:00;6.53;;;1.90;;
45676;SDS011;31390;51.186;6.830;2023-05-29T11:09:37;3.75;;;1.60;;
45676;SDS011;31390;51.186;6.830;2023-05-29T11:12:14;4.72;;;1.73;;
45676;SDS011;31390;51.186;6.830;2023-05-29T11:14:44;6.50;;;2.20;;
45676;SDS011;31390;51.186;6.830;2023-05-29T11:20:26;4.25;;;1.70;;
45676;SDS011;31390;51.186;6.830;2023-05-29T11:25:25;9.48;;;1.65;;
45676;SDS011;31390;51.186;6.830;2023-05-29T11:27:51;4.50;;;1.80;;
45676;SDS011;31390;51.186;6.830;2023-05-29T11:30:18;7.20;;;1.65;;
45676;SDS011;31390;51.186;6.830;2023-05-29T11:32:45;4.90;;;1.45;;
45676;SDS011;31390;51.186;6.830;2023-05-29T11:35:13;5.82;;;1.30;;
45676;SDS011;31390;51.186;6.830;2023-05-29T11:37:43;3.00;;;1.45;;
45676;SDS011;31390;51.186;6.830;2023-05-29T11:40:12;7.85;;;1.70;;
45676;SDS011;31390;51.186;6.830;2023-05-29T11:42:43;4.45;;;1.70;;
45676;SDS011;31390;51.186;6.830;2023-05-29T11:45:13;2.83;;;1.38;;
45676;SDS011;31390;51.186;6.830;2023-05-29T11:47:59;4.63;;;1.70;;
45676;SDS011;31390;51.186;6.830;2023-05-29T11:50:27;5.78;;;1.48;;
45676;SDS011;31390;51.186;6.830;2023-05-29T11:52:54;5.55;;;1.88;;
45676;SDS011;31390;51.186;6.830;2023-05-29T11:55:22;4.43;;;1.73;;
45676;SDS011;31390;51.186;6.830;2023-05-29T11:57:49;1.88;;;1.30;;
45676;SDS011;31390;51.186;6.830;2023-05-29T12:00:16;4.45;;;1.15;;
45676;SDS011;31390;51.186;6.830;2023-05-29T12:02:43;3.80;;;1.30;;
45676;SDS011;31390;51.186;6.830;2023-05-29T12:05:10;3.92;;;1.10;;
45676;SDS011;31390;51.186;6.830;2023-05-29T12:07:39;1.77;;;1.20;;
45676;SDS011;31390;51.186;6.830;2023-05-29T12:10:13;2.92;;;1.00;;
45676;SDS011;31390;51.186;6.830;2023-05-29T12:12:40;3.92;;;1.20;;
45676;SDS011;31390;51.186;6.830;2023-05-29T12:15:09;3.05;;;1.08;;
45676;SDS011;31390;51.186;6.830;2023-05-29T12:17:35;3.97;;;1.25;;
45676;SDS011;31390;51.186;6.830;2023-05-29T12:20:03;1.42;;;0.70;;
45676;SDS011;31390;51.186;6.830;2023-05-29T12:22:36;4.10;;;1.10;;
45676;SDS011;31390;51.186;6.830;2023-05-29T12:25:03;6.15;;;1.35;;
45676;SDS011;31390;51.186;6.830;2023-05-29T12:27:31;3.25;;;1.20;;
45676;SDS011;31390;51.186;6.830;2023-05-29T12:30:00;4.97;;;1.65;;
45676;SDS011;31390;51.186;6.830;2023-05-29T12:32:34;5.50;;;1.30;;
45676;SDS011;31390;51.186;6.830;2023-05-29T12:35:09;4.38;;;1.20;;
45676;SDS011;31390;51.186;6.830;2023-05-29T12:37:35;2.75;;;1.25;;
45676;SDS011;31390;51.186;6.830;2023-05-29T12:40:10;2.50;;;1.00;;
45676;SDS011;31390;51.186;6.830;2023-05-29T12:42:37;2.25;;;0.95;;
45676;SDS011;31390;51.186;6.830;2023-05-29T12:45:06;3.38;;;1.25;;
45676;SDS011;31390;51.186;6.830;2023-05-29T12:47:33;1.85;;;1.00;;
45676;SDS011;31390;51.186;6.830;2023-05-29T12:53:08;1.70;;;1.00;;
45676;SDS011;31390;51.186;6.830;2023-05-29T12:55:36;1.77;;;1.30;;
45676;SDS011;31390;51.186;6.830;2023-05-29T12:58:04;1.90;;;1.23;;
45676;SDS011;31390;51.186;6.830;2023-05-29T13:00:30;3.17;;;1.33;;
45676;SDS011;31390;51.186;6.830;2023-05-29T13:02:57;4.07;;;1.08;;
45676;SDS011;31390;51.186;6.830;2023-05-29T13:05:25;1.95;;;0.98;;
45676;SDS011;31390;51.186;6.830;2023-05-29T13:07:51;2.92;;;1.50;;
45676;SDS011;31390;51.186;6.830;2023-05-29T13:10:18;5.70;;;1.50;;
45676;SDS011;31390;51.186;6.830;2023-05-29T13:12:46;3.30;;;1.25;;
45676;SDS011;31390;51.186;6.830;2023-05-29T13:15:13;5.82;;;1.05;;
45676;SDS011;31390;51.186;6.830;2023-05-29T13:17:40;7.43;;;1.13;;
45676;SDS011;31390;51.186;6.830;2023-05-29T13:20:10;3.38;;;1.30;;
45676;SDS011;31390;51.186;6.830;2023-05-29T13:22:37;6.22;;;1.83;;
45676;SDS011;31390;51.186;6.830;2023-05-29T13:25:04;2.75;;;0.82;;
45676;SDS011;31390;51.186;6.830;2023-05-29T13:27:33;4.63;;;1.08;;
45676;SDS011;31390;51.186;6.830;2023-05-29T13:30:01;3.58;;;1.23;;
45676;SDS011;31390;51.186;6.830;2023-05-29T13:32:27;3.95;;;1.58;;
45676;SDS011;31390;51.186;6.830;2023-05-29T13:34:54;2.70;;;0.90;;
45676;SDS011;31390;51.186;6.830;2023-05-29T13:37:21;6.15;;;1.73;;
45676;SDS011;31390;51.186;6.830;2023-05-29T13:39:47;2.90;;;1.50;;
45676;SDS011;31390;51.186;6.830;2023-05-29T13:42:14;4.85;;;1.45;;
45676;SDS011;31390;51.186;6.830;2023-05-29T13:44:41;2.10;;;1.20;;
45676;SDS011;31390;51.186;6.830;2023-05-29T13:47:08;2.78;;;1.10;;
45676;SDS011;31390;51.186;6.830;2023-05-29T13:49:34;3.65;;;1.15;;
45676;SDS011;31390;51.186;6.830;2023-05-29T13:52:04;3.35;;;1.30;;
45676;SDS011;31390;51.186;6.830;2023-05-29T13:54:31;3.78;;;1.50;;
45676;SDS011;31390;51.186;6.830;2023-05-29T13:57:02;2.17;;;1.52;;
45676;SDS011;31390;51.186;6.830;2023-05-29T13:59:32;2.92;;;1.30;;
45676;SDS011;31390;51.186;6.830;2023-05-29T14:01:59;3.72;;;0.88;;
45676;SDS011;31390;51.186;6.830;2023-05-29T14:04:26;5.45;;;1.33;;
45676;SDS011;31390;51.186;6.830;2023-05-29T14:06:53;1.50;;;1.10;;
45676;SDS011;31390;51.186;6.830;2023-05-29T14:09:19;2.65;;;1.08;;
45676;SDS011;31390;51.186;6.830;2023-05-29T14:11:54;4.63;;;1.23;;
45676;SDS011;31390;51.186;6.830;2023-05-29T14:14:21;1.17;;;0.90;;
45676;SDS011;31390;51.186;6.830;2023-05-29T14:16:51;5.35;;;1.20;;
45676;SDS011;31390;51.186;6.830;2023-05-29T14:19:18;4.70;;;1.08;;
45676;SDS011;31390;51.186;6.830;2023-05-29T14:21:45;3.58;;;1.42;;
45676;SDS011;31390;51.186;6.830;2023-05-29T14:24:12;1.90;;;1.15;;
45676;SDS011;31390;51.186;6.830;2023-05-29T14:26:39;2.33;;;1.08;;
45676;SDS011;31390;51.186;6.830;2023-05-29T14:29:06;3.53;;;1.20;;
45676;SDS011;31390;51.186;6.830;2023-05-29T14:31:43;5.55;;;1.30;;
45676;SDS011;31390;51.186;6.830;2023-05-29T14:34:11;1.42;;;1.20;;
45676;SDS011;31390;51.186;6.830;2023-05-29T14:36:38;2.53;;;0.98;;
45676;SDS011;31390;51.186;6.830;2023-05-29T14:39:06;2.58;;;1.00;;
45676;SDS011;31390;51.186;6.830;2023-05-29T14:41:33;3.30;;;1.23;;
45676;SDS011;31390;51.186;6.830;2023-05-29T14:44:01;4.85;;;1.52;;
45676;SDS011;31390;51.186;6.830;2023-05-29T14:46:28;4.15;;;1.70;;
45676;SDS011;31390;51.186;6.830;2023-05-29T14:48:58;2.53;;;1.23;;
45676;SDS011;31390;51.186;6.830;2023-05-29T14:51:26;2.80;;;1.45;;
45676;SDS011;31390;51.186;6.830;2023-05-29T14:53:52;6.20;;;1.75;;
45676;SDS011;31390;51.186;6.830;2023-05-29T14:56:19;4.80;;;1.55;;
45676;SDS011;31390;51.186;6.830;2023-05-29T14:58:46;3.35;;;1.40;;
45676;SDS011;31390;51.186;6.830;2023-05-29T15:01:15;3.67;;;1.50;;
45676;SDS011;31390;51.186;6.830;2023-05-29T15:03:42;3.47;;;1.33;;
45676;SDS011;31390;51.186;6.830;2023-05-29T15:06:09;3.45;;;2.00;;
45676;SDS011;31390;51.186;6.830;2023-05-29T15:08:36;4.20;;;1.70;;
45676;SDS011;31390;51.186;6.830;2023-05-29T15:11:03;5.28;;;2.03;;
45676;SDS011;31390;51.186;6.830;2023-05-29T15:13:29;2.33;;;1.65;;
45676;SDS011;31390;51.186;6.830;2023-05-29T15:15:56;3.97;;;1.77;;
45676;SDS011;31390;51.186;6.830;2023-05-29T15:18:26;2.55;;;1.50;;
45676;SDS011;31390;51.186;6.830;2023-05-29T15:20:53;2.80;;;1.42;;